sensor_id;sensor_type;location;lat;lon;timestamp;temperature;humidity
70708;SHT30;58277;47.316;18.908;2022-08-21T00:02:20;20.32;82.82
70708;SHT30;58277;47.316;18.908;2022-08-21T00:04:44;20.32;82.82
70708;SHT30;58277;47.316;18.908;2022-08-21T00:07:19;20.36;82.74
70708;SHT30;58277;47.316;18.908;2022-08-21T00:09:42;20.32;82.64
70708;SHT30;58277;47.316;18.908;2022-08-21T00:12:05;20.40;82.31
70708;SHT30;58277;47.316;18.908;2022-08-21T00:14:28;20.37;82.35
70708;SHT30;58277;47.316;18.908;2022-08-21T00:16:53;20.23;82.49
70708;SHT30;58277;47.316;18.908;2022-08-21T00:19:21;20.17;82.95
70708;SHT30;58277;47.316;18.908;2022-08-21T00:21:47;20.09;83.00
70708;SHT30;58277;47.316;18.908;2022-08-21T00:24:09;20.09;82.87
70708;SHT30;58277;47.316;18.908;2022-08-21T00:26:32;20.12;82.48
70708;SHT30;58277;47.316;18.908;2022-08-21T00:28:55;20.06;83.03
70708;SHT30;58277;47.316;18.908;2022-08-21T00:31:20;19.89;83.37
70708;SHT30;58277;47.316;18.908;2022-08-21T00:33:42;19.86;83.24
70708;SHT30;58277;47.316;18.908;2022-08-21T00:36:05;19.85;83.26
70708;SHT30;58277;47.316;18.908;2022-08-21T00:38:31;19.79;83.45
70708;SHT30;58277;47.316;18.908;2022-08-21T00:40:57;19.90;83.45
70708;SHT30;58277;47.316;18.908;2022-08-21T00:43:27;19.88;83.36
70708;SHT30;58277;47.316;18.908;2022-08-21T00:45:51;19.93;83.25
70708;SHT30;58277;47.316;18.908;2022-08-21T00:48:14;19.89;83.71
70708;SHT30;58277;47.316;18.908;2022-08-21T00:50:42;19.92;83.32
70708;SHT30;58277;47.316;18.908;2022-08-21T00:53:06;19.92;83.15
70708;SHT30;58277;47.316;18.908;2022-08-21T00:55:30;20.00;83.13
70708;SHT30;58277;47.316;18.908;2022-08-21T00:57:57;19.99;82.80
70708;SHT30;58277;47.316;18.908;2022-08-21T01:00:25;19.96;82.82
70708;SHT30;58277;47.316;18.908;2022-08-21T01:02:48;20.00;82.36
70708;SHT30;58277;47.316;18.908;2022-08-21T01:05:11;19.99;82.62
70708;SHT30;58277;47.316;18.908;2022-08-21T01:07:34;19.99;82.73
70708;SHT30;58277;47.316;18.908;2022-08-21T01:09:57;19.95;82.36
70708;SHT30;58277;47.316;18.908;2022-08-21T01:12:20;19.95;82.62
70708;SHT30;58277;47.316;18.908;2022-08-21T01:14:43;19.90;82.75
70708;SHT30;58277;47.316;18.908;2022-08-21T01:17:07;19.98;82.47
70708;SHT30;58277;47.316;18.908;2022-08-21T01:19:31;19.90;82.59
70708;SHT30;58277;47.316;18.908;2022-08-21T01:21:53;19.96;82.79
70708;SHT30;58277;47.316;18.908;2022-08-21T01:24:17;19.99;82.44
70708;SHT30;58277;47.316;18.908;2022-08-21T01:26:41;19.98;82.68
70708;SHT30;58277;47.316;18.908;2022-08-21T01:31:52;20.00;82.19
70708;SHT30;58277;47.316;18.908;2022-08-21T01:34:17;19.96;82.70
70708;SHT30;58277;47.316;18.908;2022-08-21T01:36:39;19.93;82.80
70708;SHT30;58277;47.316;18.908;2022-08-21T01:39:03;19.98;82.60
70708;SHT30;58277;47.316;18.908;2022-08-21T01:41:26;19.98;82.65
70708;SHT30;58277;47.316;18.908;2022-08-21T01:43:48;19.95;82.34
70708;SHT30;58277;47.316;18.908;2022-08-21T01:46:12;19.98;82.70
70708;SHT30;58277;47.316;18.908;2022-08-21T01:48:35;19.99;82.37
70708;SHT30;58277;47.316;18.908;2022-08-21T01:50:58;19.93;82.46
70708;SHT30;58277;47.316;18.908;2022-08-21T01:53:21;19.88;82.86
70708;SHT30;58277;47.316;18.908;2022-08-21T01:55:54;19.90;82.67
70708;SHT30;58277;47.316;18.908;2022-08-21T01:58:17;19.96;82.65
70708;SHT30;58277;47.316;18.908;2022-08-21T02:00:39;19.93;82.67
70708;SHT30;58277;47.316;18.908;2022-08-21T02:03:02;19.96;82.72
70708;SHT30;58277;47.316;18.908;2022-08-21T02:05:25;19.99;82.56
70708;SHT30;58277;47.316;18.908;2022-08-21T02:07:50;19.96;82.93
70708;SHT30;58277;47.316;18.908;2022-08-21T02:10:17;19.95;82.38
70708;SHT30;58277;47.316;18.908;2022-08-21T02:12:39;19.95;82.43
70708;SHT30;58277;47.316;18.908;2022-08-21T02:15:04;20.02;82.64
70708;SHT30;58277;47.316;18.908;2022-08-21T02:17:27;19.92;82.85
70708;SHT30;58277;47.316;18.908;2022-08-21T02:19:50;20.02;82.72
70708;SHT30;58277;47.316;18.908;2022-08-21T02:22:12;19.99;82.77
70708;SHT30;58277;47.316;18.908;2022-08-21T02:24:36;19.95;83.04
70708;SHT30;58277;47.316;18.908;2022-08-21T02:27:16;20.06;82.95
70708;SHT30;58277;47.316;18.908;2022-08-21T02:29:45;20.02;82.44
70708;SHT30;58277;47.316;18.908;2022-08-21T02:32:13;20.02;82.74
70708;SHT30;58277;47.316;18.908;2022-08-21T02:34:37;20.09;82.91
70708;SHT30;58277;47.316;18.908;2022-08-21T02:36:59;20.08;82.46
70708;SHT30;58277;47.316;18.908;2022-08-21T02:39:22;20.09;82.78
70708;SHT30;58277;47.316;18.908;2022-08-21T02:41:49;20.08;82.40
70708;SHT30;58277;47.316;18.908;2022-08-21T02:44:11;20.06;82.76
70708;SHT30;58277;47.316;18.908;2022-08-21T02:46:34;20.05;82.96
70708;SHT30;58277;47.316;18.908;2022-08-21T02:48:56;20.13;82.38
70708;SHT30;58277;47.316;18.908;2022-08-21T02:51:20;20.17;82.39
70708;SHT30;58277;47.316;18.908;2022-08-21T02:53:43;20.15;82.43
70708;SHT30;58277;47.316;18.908;2022-08-21T02:56:10;20.09;82.22
70708;SHT30;58277;47.316;18.908;2022-08-21T02:58:36;20.12;82.09
70708;SHT30;58277;47.316;18.908;2022-08-21T03:01:01;20.12;82.02
70708;SHT30;58277;47.316;18.908;2022-08-21T03:03:25;20.09;82.40
70708;SHT30;58277;47.316;18.908;2022-08-21T03:05:48;20.09;82.46
70708;SHT30;58277;47.316;18.908;2022-08-21T03:08:13;20.05;82.93
70708;SHT30;58277;47.316;18.908;2022-08-21T03:10:38;20.08;82.91
70708;SHT30;58277;47.316;18.908;2022-08-21T03:13:02;20.08;82.49
70708;SHT30;58277;47.316;18.908;2022-08-21T03:15:25;20.09;82.29
70708;SHT30;58277;47.316;18.908;2022-08-21T03:17:48;20.15;82.48
70708;SHT30;58277;47.316;18.908;2022-08-21T03:20:12;20.09;82.22
70708;SHT30;58277;47.316;18.908;2022-08-21T03:22:35;20.09;82.95
70708;SHT30;58277;47.316;18.908;2022-08-21T03:24:58;20.08;82.52
70708;SHT30;58277;47.316;18.908;2022-08-21T03:27:21;19.99;82.74
70708;SHT30;58277;47.316;18.908;2022-08-21T03:29:44;20.06;82.66
70708;SHT30;58277;47.316;18.908;2022-08-21T03:32:07;19.96;82.97
70708;SHT30;58277;47.316;18.908;2022-08-21T03:34:31;20.04;83.05
70708;SHT30;58277;47.316;18.908;2022-08-21T03:36:54;20.05;82.78
70708;SHT30;58277;47.316;18.908;2022-08-21T03:39:16;20.09;82.83
70708;SHT30;58277;47.316;18.908;2022-08-21T03:41:39;20.17;82.76
70708;SHT30;58277;47.316;18.908;2022-08-21T03:44:02;20.12;82.45
70708;SHT30;58277;47.316;18.908;2022-08-21T03:46:24;20.06;82.51
70708;SHT30;58277;47.316;18.908;2022-08-21T03:48:47;20.10;82.52
70708;SHT30;58277;47.316;18.908;2022-08-21T03:51:10;20.08;83.10
70708;SHT30;58277;47.316;18.908;2022-08-21T03:53:33;20.04;82.74
70708;SHT30;58277;47.316;18.908;2022-08-21T03:55:56;20.02;82.94
70708;SHT30;58277;47.316;18.908;2022-08-21T03:58:22;19.98;83.31
70708;SHT30;58277;47.316;18.908;2022-08-21T04:00:47;20.02;82.79
70708;SHT30;58277;47.316;18.908;2022-08-21T04:03:10;19.99;82.98
70708;SHT30;58277;47.316;18.908;2022-08-21T04:05:33;20.08;83.00
70708;SHT30;58277;47.316;18.908;2022-08-21T04:08:04;20.12;82.37
70708;SHT30;58277;47.316;18.908;2022-08-21T04:10:30;20.12;82.47
70708;SHT30;58277;47.316;18.908;2022-08-21T04:12:53;20.06;82.74
70708;SHT30;58277;47.316;18.908;2022-08-21T04:15:16;20.02;82.83
70708;SHT30;58277;47.316;18.908;2022-08-21T04:17:39;20.12;82.73
70708;SHT30;58277;47.316;18.908;2022-08-21T04:20:02;20.15;82.91
70708;SHT30;58277;47.316;18.908;2022-08-21T04:22:25;20.10;82.64
70708;SHT30;58277;47.316;18.908;2022-08-21T04:24:48;20.16;82.30
70708;SHT30;58277;47.316;18.908;2022-08-21T04:27:10;20.15;82.31
70708;SHT30;58277;47.316;18.908;2022-08-21T04:29:34;20.12;82.59
70708;SHT30;58277;47.316;18.908;2022-08-21T04:32:01;20.17;82.17
70708;SHT30;58277;47.316;18.908;2022-08-21T04:34:24;20.19;82.53
70708;SHT30;58277;47.316;18.908;2022-08-21T04:36:46;20.20;82.22
70708;SHT30;58277;47.316;18.908;2022-08-21T04:39:09;20.26;81.89
70708;SHT30;58277;47.316;18.908;2022-08-21T04:41:31;20.22;82.55
70708;SHT30;58277;47.316;18.908;2022-08-21T04:43:54;20.22;82.21
70708;SHT30;58277;47.316;18.908;2022-08-21T04:46:20;20.22;81.94
70708;SHT30;58277;47.316;18.908;2022-08-21T04:48:43;20.09;81.57
70708;SHT30;58277;47.316;18.908;2022-08-21T04:51:15;20.15;81.69
70708;SHT30;58277;47.316;18.908;2022-08-21T04:53:52;20.17;81.45
70708;SHT30;58277;47.316;18.908;2022-08-21T04:56:55;20.23;81.29
70708;SHT30;58277;47.316;18.908;2022-08-21T04:59:21;20.23;81.47
70708;SHT30;58277;47.316;18.908;2022-08-21T05:01:45;20.39;81.06
70708;SHT30;58277;47.316;18.908;2022-08-21T05:04:11;20.34;81.22
70708;SHT30;58277;47.316;18.908;2022-08-21T05:06:36;20.40;80.88
70708;SHT30;58277;47.316;18.908;2022-08-21T05:09:00;20.47;80.42
70708;SHT30;58277;47.316;18.908;2022-08-21T05:11:23;20.46;80.07
70708;SHT30;58277;47.316;18.908;2022-08-21T05:13:47;20.32;80.94
70708;SHT30;58277;47.316;18.908;2022-08-21T05:16:16;20.34;80.58
70708;SHT30;58277;47.316;18.908;2022-08-21T05:18:59;20.51;80.24
70708;SHT30;58277;47.316;18.908;2022-08-21T05:21:21;20.53;80.03
70708;SHT30;58277;47.316;18.908;2022-08-21T05:23:44;20.43;80.18
70708;SHT30;58277;47.316;18.908;2022-08-21T05:26:08;20.47;79.64
70708;SHT30;58277;47.316;18.908;2022-08-21T05:28:39;20.43;79.89
70708;SHT30;58277;47.316;18.908;2022-08-21T05:31:02;20.46;79.21
70708;SHT30;58277;47.316;18.908;2022-08-21T05:33:25;20.48;79.67
70708;SHT30;58277;47.316;18.908;2022-08-21T05:35:52;20.56;79.43
70708;SHT30;58277;47.316;18.908;2022-08-21T05:38:15;20.53;79.39
70708;SHT30;58277;47.316;18.908;2022-08-21T05:40:39;20.67;78.77
70708;SHT30;58277;47.316;18.908;2022-08-21T05:43:02;20.71;78.60
70708;SHT30;58277;47.316;18.908;2022-08-21T05:45:28;20.75;78.47
70708;SHT30;58277;47.316;18.908;2022-08-21T05:48:07;20.67;78.48
70708;SHT30;58277;47.316;18.908;2022-08-21T05:50:29;20.60;78.37
70708;SHT30;58277;47.316;18.908;2022-08-21T05:52:55;20.70;78.53
70708;SHT30;58277;47.316;18.908;2022-08-21T05:55:25;20.80;78.41
70708;SHT30;58277;47.316;18.908;2022-08-21T05:57:55;20.92;78.28
70708;SHT30;58277;47.316;18.908;2022-08-21T06:00:17;20.94;77.60
70708;SHT30;58277;47.316;18.908;2022-08-21T06:02:40;21.05;77.29
70708;SHT30;58277;47.316;18.908;2022-08-21T06:05:03;21.11;76.86
70708;SHT30;58277;47.316;18.908;2022-08-21T06:07:26;21.19;77.12
70708;SHT30;58277;47.316;18.908;2022-08-21T06:10:09;21.23;76.68
70708;SHT30;58277;47.316;18.908;2022-08-21T06:12:53;21.25;76.35
70708;SHT30;58277;47.316;18.908;2022-08-21T06:15:17;21.21;76.45
70708;SHT30;58277;47.316;18.908;2022-08-21T06:17:40;21.25;76.60
70708;SHT30;58277;47.316;18.908;2022-08-21T06:20:03;21.30;76.75
70708;SHT30;58277;47.316;18.908;2022-08-21T06:22:26;21.30;76.14
70708;SHT30;58277;47.316;18.908;2022-08-21T06:24:49;21.38;75.95
70708;SHT30;58277;47.316;18.908;2022-08-21T06:27:12;21.49;75.94
70708;SHT30;58277;47.316;18.908;2022-08-21T06:29:35;21.60;75.61
70708;SHT30;58277;47.316;18.908;2022-08-21T06:32:06;21.83;75.17
70708;SHT30;58277;47.316;18.908;2022-08-21T06:34:32;22.14;74.00
70708;SHT30;58277;47.316;18.908;2022-08-21T06:36:54;22.28;73.24
70708;SHT30;58277;47.316;18.908;2022-08-21T06:39:18;22.53;72.33
70708;SHT30;58277;47.316;18.908;2022-08-21T06:41:53;22.60;72.22
70708;SHT30;58277;47.316;18.908;2022-08-21T06:44:23;22.62;72.27
70708;SHT30;58277;47.316;18.908;2022-08-21T06:46:45;22.77;72.13
70708;SHT30;58277;47.316;18.908;2022-08-21T06:49:09;22.70;71.68
70708;SHT30;58277;47.316;18.908;2022-08-21T06:51:42;22.56;72.20
70708;SHT30;58277;47.316;18.908;2022-08-21T06:54:05;22.52;72.78
70708;SHT30;58277;47.316;18.908;2022-08-21T06:56:28;22.51;72.86
70708;SHT30;58277;47.316;18.908;2022-08-21T06:58:53;22.57;73.33
70708;SHT30;58277;47.316;18.908;2022-08-21T07:01:16;22.76;71.79
70708;SHT30;58277;47.316;18.908;2022-08-21T07:03:40;22.84;71.66
70708;SHT30;58277;47.316;18.908;2022-08-21T07:06:04;23.03;71.69
70708;SHT30;58277;47.316;18.908;2022-08-21T07:08:28;22.69;72.24
70708;SHT30;58277;47.316;18.908;2022-08-21T07:10:52;22.70;73.40
70708;SHT30;58277;47.316;18.908;2022-08-21T07:13:16;22.80;72.85
70708;SHT30;58277;47.316;18.908;2022-08-21T07:15:38;22.64;72.89
70708;SHT30;58277;47.316;18.908;2022-08-21T07:18:01;22.87;72.65
70708;SHT30;58277;47.316;18.908;2022-08-21T07:20:24;22.89;72.37
70708;SHT30;58277;47.316;18.908;2022-08-21T07:22:47;22.52;73.17
70708;SHT30;58277;47.316;18.908;2022-08-21T07:25:10;22.35;73.66
70708;SHT30;58277;47.316;18.908;2022-08-21T07:27:32;22.42;73.56
70708;SHT30;58277;47.316;18.908;2022-08-21T07:29:56;22.41;73.63
70708;SHT30;58277;47.316;18.908;2022-08-21T07:32:18;22.29;73.95
70708;SHT30;58277;47.316;18.908;2022-08-21T07:34:42;22.26;73.94
70708;SHT30;58277;47.316;18.908;2022-08-21T07:37:05;22.25;73.91
70708;SHT30;58277;47.316;18.908;2022-08-21T07:39:31;22.05;74.33
70708;SHT30;58277;47.316;18.908;2022-08-21T07:41:54;22.14;74.57
70708;SHT30;58277;47.316;18.908;2022-08-21T07:44:17;22.16;74.04
70708;SHT30;58277;47.316;18.908;2022-08-21T07:46:39;22.45;73.52
70708;SHT30;58277;47.316;18.908;2022-08-21T07:49:02;22.49;72.76
70708;SHT30;58277;47.316;18.908;2022-08-21T07:51:27;22.79;72.57
70708;SHT30;58277;47.316;18.908;2022-08-21T07:53:52;22.94;72.14
70708;SHT30;58277;47.316;18.908;2022-08-21T07:56:15;23.35;71.59
70708;SHT30;58277;47.316;18.908;2022-08-21T07:58:37;23.42;70.27
70708;SHT30;58277;47.316;18.908;2022-08-21T08:01:00;23.79;70.31
70708;SHT30;58277;47.316;18.908;2022-08-21T08:03:23;23.63;69.76
70708;SHT30;58277;47.316;18.908;2022-08-21T08:05:50;23.68;69.34
70708;SHT30;58277;47.316;18.908;2022-08-21T08:08:13;23.85;69.60
70708;SHT30;58277;47.316;18.908;2022-08-21T08:10:37;23.96;68.85
70708;SHT30;58277;47.316;18.908;2022-08-21T08:13:00;23.56;69.74
70708;SHT30;58277;47.316;18.908;2022-08-21T08:15:24;23.85;68.94
70708;SHT30;58277;47.316;18.908;2022-08-21T08:17:47;23.59;69.96
70708;SHT30;58277;47.316;18.908;2022-08-21T08:20:12;24.14;68.58
70708;SHT30;58277;47.316;18.908;2022-08-21T08:22:36;24.42;68.36
70708;SHT30;58277;47.316;18.908;2022-08-21T08:25:00;24.48;67.85
70708;SHT30;58277;47.316;18.908;2022-08-21T08:27:28;24.61;67.54
70708;SHT30;58277;47.316;18.908;2022-08-21T08:29:51;24.13;68.44
70708;SHT30;58277;47.316;18.908;2022-08-21T08:32:14;24.06;69.17
70708;SHT30;58277;47.316;18.908;2022-08-21T08:34:38;23.82;69.60
70708;SHT30;58277;47.316;18.908;2022-08-21T08:37:01;23.83;69.42
70708;SHT30;58277;47.316;18.908;2022-08-21T08:39:27;23.87;69.40
70708;SHT30;58277;47.316;18.908;2022-08-21T08:41:58;24.16;69.56
70708;SHT30;58277;47.316;18.908;2022-08-21T08:44:22;24.31;68.13
70708;SHT30;58277;47.316;18.908;2022-08-21T08:46:47;24.42;68.48
70708;SHT30;58277;47.316;18.908;2022-08-21T08:49:30;24.51;67.88
70708;SHT30;58277;47.316;18.908;2022-08-21T08:54:42;24.57;67.37
70708;SHT30;58277;47.316;18.908;2022-08-21T08:57:16;24.89;66.61
70708;SHT30;58277;47.316;18.908;2022-08-21T08:59:42;25.05;66.65
70708;SHT30;58277;47.316;18.908;2022-08-21T09:02:05;25.43;64.84
70708;SHT30;58277;47.316;18.908;2022-08-21T09:04:28;25.48;64.81
70708;SHT30;58277;47.316;18.908;2022-08-21T09:07:30;25.58;64.17
70708;SHT30;58277;47.316;18.908;2022-08-21T09:15:50;25.36;64.95
70708;SHT30;58277;47.316;18.908;2022-08-21T09:18:54;25.46;64.55
70708;SHT30;58277;47.316;18.908;2022-08-21T09:27:06;24.89;65.69
70708;SHT30;58277;47.316;18.908;2022-08-21T09:29:31;24.60;66.81
70708;SHT30;58277;47.316;18.908;2022-08-21T09:31:55;24.85;67.40
70708;SHT30;58277;47.316;18.908;2022-08-21T09:34:26;24.95;66.36
70708;SHT30;58277;47.316;18.908;2022-08-21T09:36:50;24.82;66.40
70708;SHT30;58277;47.316;18.908;2022-08-21T09:41:56;25.28;64.92
70708;SHT30;58277;47.316;18.908;2022-08-21T09:44:26;25.50;64.55
70708;SHT30;58277;47.316;18.908;2022-08-21T09:46:50;25.80;64.52
70708;SHT30;58277;47.316;18.908;2022-08-21T09:49:36;26.22;62.41
70708;SHT30;58277;47.316;18.908;2022-08-21T09:51:59;26.09;62.52
70708;SHT30;58277;47.316;18.908;2022-08-21T09:54:29;26.41;61.92
70708;SHT30;58277;47.316;18.908;2022-08-21T09:59:50;26.74;61.23
70708;SHT30;58277;47.316;18.908;2022-08-21T10:02:29;26.76;61.80
70708;SHT30;58277;47.316;18.908;2022-08-21T10:04:58;26.99;60.83
70708;SHT30;58277;47.316;18.908;2022-08-21T10:07:23;27.09;60.07
70708;SHT30;58277;47.316;18.908;2022-08-21T10:09:46;26.94;60.60
70708;SHT30;58277;47.316;18.908;2022-08-21T10:38:00;27.04;60.24
70708;SHT30;58277;47.316;18.908;2022-08-21T10:40:26;27.02;61.24
70708;SHT30;58277;47.316;18.908;2022-08-21T10:45:32;26.83;60.05
70708;SHT30;58277;47.316;18.908;2022-08-21T10:48:04;26.53;60.71
70708;SHT30;58277;47.316;18.908;2022-08-21T10:55:36;26.51;61.96
70708;SHT30;58277;47.316;18.908;2022-08-21T10:58:09;26.73;62.09
70708;SHT30;58277;47.316;18.908;2022-08-21T11:00:44;26.44;61.94
70708;SHT30;58277;47.316;18.908;2022-08-21T11:03:17;26.70;61.64
70708;SHT30;58277;47.316;18.908;2022-08-21T11:06:04;26.37;61.81
70708;SHT30;58277;47.316;18.908;2022-08-21T11:11:10;26.18;62.72
70708;SHT30;58277;47.316;18.908;2022-08-21T11:16:16;26.32;62.27
70708;SHT30;58277;47.316;18.908;2022-08-21T11:18:45;26.60;61.29
70708;SHT30;58277;47.316;18.908;2022-08-21T11:23:44;27.06;60.12
70708;SHT30;58277;47.316;18.908;2022-08-21T11:26:13;27.09;60.52
70708;SHT30;58277;47.316;18.908;2022-08-21T11:28:52;27.19;59.84
70708;SHT30;58277;47.316;18.908;2022-08-21T11:31:41;27.14;59.74
70708;SHT30;58277;47.316;18.908;2022-08-21T11:34:13;27.02;60.38
70708;SHT30;58277;47.316;18.908;2022-08-21T11:36:47;27.14;60.74
70708;SHT30;58277;47.316;18.908;2022-08-21T11:39:24;27.15;60.18
70708;SHT30;58277;47.316;18.908;2022-08-21T11:41:57;27.01;60.59
70708;SHT30;58277;47.316;18.908;2022-08-21T11:44:48;26.92;60.39
70708;SHT30;58277;47.316;18.908;2022-08-21T11:47:23;26.81;61.07
70708;SHT30;58277;47.316;18.908;2022-08-21T11:55:06;26.49;61.57
70708;SHT30;58277;47.316;18.908;2022-08-21T11:57:40;26.59;61.73
70708;SHT30;58277;47.316;18.908;2022-08-21T12:00:33;26.33;62.44
70708;SHT30;58277;47.316;18.908;2022-08-21T12:03:05;26.19;62.81
70708;SHT30;58277;47.316;18.908;2022-08-21T12:05:34;25.89;62.77
70708;SHT30;58277;47.316;18.908;2022-08-21T12:08:11;25.85;63.55
70708;SHT30;58277;47.316;18.908;2022-08-21T12:10:59;25.94;63.93
70708;SHT30;58277;47.316;18.908;2022-08-21T12:13:26;25.70;64.21
70708;SHT30;58277;47.316;18.908;2022-08-21T12:16:12;25.48;64.63
70708;SHT30;58277;47.316;18.908;2022-08-21T12:18:35;25.33;65.72
70708;SHT30;58277;47.316;18.908;2022-08-21T12:26:18;24.58;68.36
70708;SHT30;58277;47.316;18.908;2022-08-21T12:28:42;24.41;68.55
70708;SHT30;58277;47.316;18.908;2022-08-21T12:31:17;24.28;69.32
70708;SHT30;58277;47.316;18.908;2022-08-21T12:33:40;24.20;71.18
70708;SHT30;58277;47.316;18.908;2022-08-21T12:36:07;24.06;71.05
70708;SHT30;58277;47.316;18.908;2022-08-21T12:38:43;23.93;72.16
70708;SHT30;58277;47.316;18.908;2022-08-21T12:41:17;23.76;72.68
70708;SHT30;58277;47.316;18.908;2022-08-21T12:43:43;23.62;72.32
70708;SHT30;58277;47.316;18.908;2022-08-21T12:46:17;23.54;72.98
70708;SHT30;58277;47.316;18.908;2022-08-21T12:48:59;23.47;73.50
70708;SHT30;58277;47.316;18.908;2022-08-21T12:51:28;23.18;76.11
70708;SHT30;58277;47.316;18.908;2022-08-21T12:53:53;22.84;76.10
70708;SHT30;58277;47.316;18.908;2022-08-21T12:56:19;22.69;77.88
70708;SHT30;58277;47.316;18.908;2022-08-21T12:58:47;22.38;79.47
70708;SHT30;58277;47.316;18.908;2022-08-21T13:01:38;22.42;81.20
70708;SHT30;58277;47.316;18.908;2022-08-21T13:04:07;22.39;82.14
70708;SHT30;58277;47.316;18.908;2022-08-21T13:06:36;22.34;81.62
70708;SHT30;58277;47.316;18.908;2022-08-21T13:09:06;22.43;81.96
70708;SHT30;58277;47.316;18.908;2022-08-21T13:11:31;22.45;81.49
70708;SHT30;58277;47.316;18.908;2022-08-21T13:13:55;22.38;80.85
70708;SHT30;58277;47.316;18.908;2022-08-21T13:16:26;22.36;82.01
70708;SHT30;58277;47.316;18.908;2022-08-21T13:21:29;22.18;82.59
70708;SHT30;58277;47.316;18.908;2022-08-21T13:23:52;22.21;82.14
70708;SHT30;58277;47.316;18.908;2022-08-21T13:26:23;22.22;80.74
70708;SHT30;58277;47.316;18.908;2022-08-21T13:28:47;22.19;82.53
70708;SHT30;58277;47.316;18.908;2022-08-21T13:31:10;22.11;81.82
70708;SHT30;58277;47.316;18.908;2022-08-21T13:33:33;22.04;82.18
70708;SHT30;58277;47.316;18.908;2022-08-21T13:38:29;22.05;83.79
70708;SHT30;58277;47.316;18.908;2022-08-21T13:40:56;22.09;83.87
70708;SHT30;58277;47.316;18.908;2022-08-21T13:43:25;22.05;82.17
70708;SHT30;58277;47.316;18.908;2022-08-21T13:45:54;22.01;84.88
70708;SHT30;58277;47.316;18.908;2022-08-21T13:48:17;21.97;83.79
70708;SHT30;58277;47.316;18.908;2022-08-21T13:50:42;22.05;85.04
70708;SHT30;58277;47.316;18.908;2022-08-21T13:53:30;22.07;85.85
70708;SHT30;58277;47.316;18.908;2022-08-21T13:55:53;22.08;85.51
70708;SHT30;58277;47.316;18.908;2022-08-21T13:58:42;22.05;85.27
70708;SHT30;58277;47.316;18.908;2022-08-21T14:01:05;21.98;85.73
70708;SHT30;58277;47.316;18.908;2022-08-21T14:03:34;21.88;85.76
70708;SHT30;58277;47.316;18.908;2022-08-21T14:05:58;21.80;83.97
70708;SHT30;58277;47.316;18.908;2022-08-21T14:08:31;21.61;86.00
70708;SHT30;58277;47.316;18.908;2022-08-21T14:10:55;21.60;85.84
70708;SHT30;58277;47.316;18.908;2022-08-21T14:13:33;21.61;85.99
70708;SHT30;58277;47.316;18.908;2022-08-21T14:16:01;21.53;85.81
70708;SHT30;58277;47.316;18.908;2022-08-21T14:18:24;21.53;86.22
70708;SHT30;58277;47.316;18.908;2022-08-21T14:20:48;21.57;85.24
70708;SHT30;58277;47.316;18.908;2022-08-21T14:23:11;21.54;86.15
70708;SHT30;58277;47.316;18.908;2022-08-21T14:25:43;21.57;86.41
70708;SHT30;58277;47.316;18.908;2022-08-21T14:28:27;21.57;86.55
70708;SHT30;58277;47.316;18.908;2022-08-21T14:30:50;21.59;85.56
70708;SHT30;58277;47.316;18.908;2022-08-21T14:33:26;21.60;85.22
70708;SHT30;58277;47.316;18.908;2022-08-21T14:35:49;21.51;86.10
70708;SHT30;58277;47.316;18.908;2022-08-21T14:38:15;21.53;86.15
70708;SHT30;58277;47.316;18.908;2022-08-21T14:40:38;21.57;86.19
70708;SHT30;58277;47.316;18.908;2022-08-21T14:43:01;21.59;86.32
70708;SHT30;58277;47.316;18.908;2022-08-21T14:45:29;21.67;86.84
70708;SHT30;58277;47.316;18.908;2022-08-21T14:47:53;21.71;85.78
70708;SHT30;58277;47.316;18.908;2022-08-21T14:50:16;21.73;86.36
70708;SHT30;58277;47.316;18.908;2022-08-21T14:52:40;21.73;85.28
70708;SHT30;58277;47.316;18.908;2022-08-21T14:55:07;21.78;86.15
70708;SHT30;58277;47.316;18.908;2022-08-21T14:57:33;21.80;86.31
70708;SHT30;58277;47.316;18.908;2022-08-21T14:59:57;21.83;86.71
70708;SHT30;58277;47.316;18.908;2022-08-21T15:02:23;21.84;85.51
70708;SHT30;58277;47.316;18.908;2022-08-21T15:04:46;21.83;86.57
70708;SHT30;58277;47.316;18.908;2022-08-21T15:07:08;21.76;86.72
70708;SHT30;58277;47.316;18.908;2022-08-21T15:09:31;21.74;86.51
70708;SHT30;58277;47.316;18.908;2022-08-21T15:11:57;21.67;86.90
70708;SHT30;58277;47.316;18.908;2022-08-21T15:14:24;21.73;86.54
70708;SHT30;58277;47.316;18.908;2022-08-21T15:16:47;21.69;87.03
70708;SHT30;58277;47.316;18.908;2022-08-21T15:19:10;21.67;86.46
70708;SHT30;58277;47.316;18.908;2022-08-21T15:21:33;21.73;86.86
70708;SHT30;58277;47.316;18.908;2022-08-21T15:23:55;21.67;87.25
70708;SHT30;58277;47.316;18.908;2022-08-21T15:26:18;21.69;87.09
70708;SHT30;58277;47.316;18.908;2022-08-21T15:28:41;21.76;86.58
70708;SHT30;58277;47.316;18.908;2022-08-21T15:31:04;21.70;87.02
70708;SHT30;58277;47.316;18.908;2022-08-21T15:33:27;21.67;86.74
70708;SHT30;58277;47.316;18.908;2022-08-21T15:35:51;21.59;86.98
70708;SHT30;58277;47.316;18.908;2022-08-21T15:38:14;21.50;87.30
70708;SHT30;58277;47.316;18.908;2022-08-21T15:40:38;21.50;87.36
70708;SHT30;58277;47.316;18.908;2022-08-21T15:43:23;21.54;86.96
70708;SHT30;58277;47.316;18.908;2022-08-21T15:45:52;21.49;87.38
70708;SHT30;58277;47.316;18.908;2022-08-21T15:48:15;21.50;87.32
70708;SHT30;58277;47.316;18.908;2022-08-21T15:50:38;21.50;87.10
70708;SHT30;58277;47.316;18.908;2022-08-21T15:53:00;21.45;87.08
70708;SHT30;58277;47.316;18.908;2022-08-21T15:55:23;21.46;87.46
70708;SHT30;58277;47.316;18.908;2022-08-21T15:57:49;21.50;87.56
70708;SHT30;58277;47.316;18.908;2022-08-21T16:00:23;21.47;87.51
70708;SHT30;58277;47.316;18.908;2022-08-21T16:02:48;21.51;87.58
70708;SHT30;58277;47.316;18.908;2022-08-21T16:05:12;21.51;87.39
70708;SHT30;58277;47.316;18.908;2022-08-21T16:07:36;21.36;87.33
70708;SHT30;58277;47.316;18.908;2022-08-21T16:09:58;21.28;87.51
70708;SHT30;58277;47.316;18.908;2022-08-21T16:12:24;21.29;87.47
70708;SHT30;58277;47.316;18.908;2022-08-21T16:14:48;21.23;87.68
70708;SHT30;58277;47.316;18.908;2022-08-21T16:17:12;21.26;87.64
70708;SHT30;58277;47.316;18.908;2022-08-21T16:19:35;21.25;88.05
70708;SHT30;58277;47.316;18.908;2022-08-21T16:21:58;21.23;87.73
70708;SHT30;58277;47.316;18.908;2022-08-21T16:24:21;21.22;87.22
70708;SHT30;58277;47.316;18.908;2022-08-21T16:26:44;21.21;87.76
70708;SHT30;58277;47.316;18.908;2022-08-21T16:29:21;21.11;88.08
70708;SHT30;58277;47.316;18.908;2022-08-21T16:31:44;21.06;88.34